Time;durP1;ratioP1;P1;durP2;ratioP2;P2;SDS_P1;SDS_P2;PMS_P1;PMS_P2;Temp;Humidity;BMP_temperature;BMP_pressure;BME280_temperature;BME280_humidity;BME280_pressure;Samples;Min_cycle;Max_cycle;Signal;HPM_P1;HPM_P2
2021/03/24 00:01:42;;;;;;;43.05;25.20;;;9.60;99.90;;;;;;5035881;28;20182;-66
2021/03/24 00:04:08;;;;;;;42.33;25.77;;;9.80;99.90;;;;;;5035663;28;20191;-64
2021/03/24 00:06:33;;;;;;;37.23;22.87;;;9.80;1.00;;;;;;5035554;28;20467;-65
2021/03/24 00:09:00;;;;;;;45.60;25.97;;;9.90;1.00;;;;;;5035654;28;20244;-65
2021/03/24 00:11:26;;;;;;;39.90;24.63;;;9.80;1.00;;;;;;5035620;28;20178;-65
2021/03/24 00:13:51;;;;;;;36.40;25.50;;;9.70;1.00;;;;;;5035595;28;20269;-65
2021/03/24 00:16:17;;;;;;;42.10;26.07;;;9.60;1.00;;;;;;5035543;28;20207;-64
2021/03/24 00:18:42;;;;;;;42.77;24.07;;;9.60;1.00;;;;;;5035437;28;20614;-64
2021/03/24 00:21:08;;;;;;;43.00;25.47;;;9.60;1.00;;;;;;5035412;28;20181;-64
2021/03/24 00:23:34;;;;;;;41.73;25.30;;;9.70;1.00;;;;;;5035041;28;20207;-64
2021/03/24 00:26:00;;;;;;;42.37;25.67;;;9.60;1.00;;;;;;5035256;28;20752;-65
2021/03/24 00:28:26;;;;;;;51.23;27.00;;;9.60;1.00;;;;;;5035273;28;20186;-65
2021/03/24 00:30:51;;;;;;;44.80;25.50;;;9.50;99.90;;;;;;5035185;28;20736;-65
2021/03/24 00:33:22;;;;;;;46.37;27.43;;;9.40;99.90;;;;;;5034761;28;20244;-64
2021/03/24 00:35:48;;;;;;;38.03;22.45;;;9.30;1.00;;;;;;5035148;28;20189;-64
2021/03/24 00:38:15;;;;;;;41.22;25.20;;;9.60;99.90;;;;;;5034995;28;20307;-66
2021/03/24 00:40:46;;;;;;;41.85;24.65;;;9.60;99.90;;;;;;5035085;28;20189;-65
2021/03/24 00:43:12;;;;;;;41.67;25.67;;;9.30;99.90;;;;;;5034746;28;20527;-65
2021/03/24 00:45:39;;;;;;;46.10;27.40;;;9.30;1.00;;;;;;5034954;28;20264;-65
2021/03/24 00:48:08;;;;;;;42.35;24.73;;;9.20;1.00;;;;;;5034928;28;20316;-65
2021/03/24 00:50:35;;;;;;;41.65;24.83;;;9.20;1.00;;;;;;5034764;28;20196;-65
2021/03/24 00:53:00;;;;;;;45.28;25.73;;;9.10;1.00;;;;;;5034819;28;20698;-65
2021/03/24 00:55:26;;;;;;;45.37;27.17;;;9.10;1.00;;;;;;5034768;28;20506;-65
2021/03/24 00:57:51;;;;;;;45.10;28.50;;;9.00;90.20;;;;;;5034918;28;20721;-65
2021/03/24 01:00:31;;;;;;;43.27;26.53;;;9.00;99.90;;;;;;5034894;28;20640;-65
2021/03/24 01:02:57;;;;;;;44.88;26.77;;;9.10;99.90;;;;;;5034639;28;20264;-65
2021/03/24 01:05:26;;;;;;;45.10;25.80;;;9.30;1.00;;;;;;5034490;28;20261;-65
2021/03/24 01:07:55;;;;;;;43.25;25.35;;;9.20;1.00;;;;;;5034548;28;20780;-65
2021/03/24 01:10:24;;;;;;;45.03;25.58;;;9.20;1.00;;;;;;5034577;28;20611;-65
2021/03/24 01:12:50;;;;;;;45.80;25.80;;;9.10;1.00;;;;;;5034619;28;20181;-65
2021/03/24 01:15:16;;;;;;;41.80;25.08;;;9.10;1.00;;;;;;5034345;28;20188;-65
2021/03/24 01:17:42;;;;;;;41.17;24.90;;;9.10;1.00;;;;;;5034369;28;20231;-65
2021/03/24 01:20:08;;;;;;;40.73;25.60;;;9.20;1.00;;;;;;5034398;28;20181;-64
2021/03/24 01:22:34;;;;;;;42.72;25.98;;;9.10;99.90;;;;;;5034311;28;20269;-64
2021/03/24 01:24:59;;;;;;;47.47;28.10;;;9.00;99.90;;;;;;5034131;28;20272;-64
2021/03/24 01:27:26;;;;;;;43.60;26.33;;;9.10;1.00;;;;;;5034415;28;20185;-64
2021/03/24 01:29:51;;;;;;;44.47;26.85;;;9.00;99.90;;;;;;5034180;28;20173;-64
2021/03/24 01:32:17;;;;;;;49.57;26.40;;;9.00;1.00;;;;;;5034133;28;20205;-64
2021/03/24 01:34:42;;;;;;;47.83;27.33;;;9.10;99.90;;;;;;5034009;28;20225;-64
2021/03/24 01:37:08;;;;;;;51.30;27.87;;;9.10;99.90;;;;;;5034296;28;20178;-64
2021/03/24 01:39:33;;;;;;;42.63;25.90;;;9.00;99.90;;;;;;5034071;28;20605;-64
2021/03/24 01:41:59;;;;;;;53.83;29.10;;;9.10;1.00;;;;;;5033972;28;20338;-64
2021/03/24 01:44:26;;;;;;;47.83;27.60;;;9.20;1.00;;;;;;5033777;28;20193;-64
2021/03/24 01:46:51;;;;;;;46.90;27.75;;;9.20;99.90;;;;;;5033863;28;20238;-64
2021/03/24 01:49:28;;;;;;;45.03;27.23;;;9.10;1.00;;;;;;5033933;28;20260;-64
2021/03/24 01:52:06;;;;;;;42.95;27.15;;;9.10;1.00;;;;;;5033878;28;20237;-64
2021/03/24 01:54:39;;;;;;;47.20;27.15;;;9.10;1.00;;;;;;5032112;28;20197;-64
2021/03/24 01:57:08;;;;;;;50.33;28.88;;;9.00;1.00;;;;;;5033705;28;20187;-64
2021/03/24 01:59:33;;;;;;;46.50;25.38;;;8.90;99.90;;;;;;5033914;28;20318;-64
2021/03/24 02:01:59;;;;;;;41.60;26.87;;;9.10;99.90;;;;;;5033757;28;20235;-64
2021/03/24 02:04:25;;;;;;;49.37;27.20;;;9.20;99.90;;;;;;5033527;28;20285;-64
2021/03/24 02:07:14;;;;;;;46.20;27.37;;;9.00;1.00;;;;;;5033637;28;20775;-64
2021/03/24 02:09:46;;;;;;;48.15;27.88;;;9.10;43.90;;;;;;5033685;28;20742;-64
2021/03/24 02:12:20;;;;;;;51.78;29.38;;;9.20;99.90;;;;;;5033605;28;20242;-64
2021/03/24 02:14:58;;;;;;;50.88;29.90;;;9.10;99.90;;;;;;5033571;28;20246;-64
2021/03/24 02:17:27;;;;;;;49.33;28.27;;;9.10;99.90;;;;;;5033538;28;20176;-65
2021/03/24 02:20:07;;;;;;;53.03;28.88;;;9.10;99.90;;;;;;5033645;28;20616;-65
2021/03/24 02:22:41;;;;;;;50.92;29.48;;;9.10;99.90;;;;;;5033508;28;20177;-64
2021/03/24 02:25:08;;;;;;;51.70;30.40;;;9.00;1.00;;;;;;5033254;28;20557;-64
2021/03/24 02:27:41;;;;;;;53.78;29.73;;;8.90;99.90;;;;;;5033476;28;20189;-64
2021/03/24 02:30:22;;;;;;;49.15;29.17;;;8.90;36.40;;;;;;5033526;28;20185;-64
2021/03/24 02:32:52;;;;;;;54.45;31.58;;;8.80;99.90;;;;;;5033438;28;20179;-66
2021/03/24 02:35:23;;;;;;;49.58;28.75;;;8.90;99.90;;;;;;5033432;28;20178;-65
2021/03/24 02:37:50;;;;;;;54.85;30.70;;;8.80;99.90;;;;;;5033251;28;20303;-64
2021/03/24 02:40:19;;;;;;;43.17;27.67;;;8.70;99.90;;;;;;5033341;28;20184;-64
2021/03/24 02:42:47;;;;;;;51.00;28.45;;;8.80;1.00;;;;;;5033365;28;20169;-65
2021/03/24 02:45:16;;;;;;;53.28;32.20;;;8.70;99.90;;;;;;5033431;28;20185;-64
2021/03/24 02:47:44;;;;;;;51.78;30.73;;;8.70;99.90;;;;;;5033881;28;20188;-64
2021/03/24 02:50:11;;;;;;;50.63;28.20;;;8.70;99.90;;;;;;5033844;28;20221;-65
2021/03/24 02:52:37;;;;;;;53.28;29.90;;;8.60;1.00;;;;;;5033718;28;20330;-64
2021/03/24 02:55:06;;;;;;;54.72;30.75;;;8.60;1.00;;;;;;5032375;28;20189;-65
2021/03/24 02:57:32;;;;;;;54.03;30.75;;;8.40;99.90;;;;;;5032545;28;20276;-66
2021/03/24 02:59:58;;;;;;;56.00;29.80;;;8.40;99.90;;;;;;5034131;28;20288;-66
2021/03/24 03:02:26;;;;;;;58.27;30.30;;;8.40;99.90;;;;;;5033644;28;20261;-65
2021/03/24 03:04:59;;;;;;;56.92;29.88;;;8.50;99.90;;;;;;5034954;28;20596;-66
2021/03/24 03:07:30;;;;;;;53.83;29.95;;;8.40;99.90;;;;;;5038158;28;20685;-65
2021/03/24 03:10:02;;;;;;;48.63;29.73;;;8.40;99.90;;;;;;5037703;28;20275;-64
2021/03/24 03:12:45;;;;;;;49.67;29.38;;;8.40;99.90;;;;;;5037728;28;20181;-66
2021/03/24 03:15:25;;;;;;;49.28;28.17;;;8.50;1.00;;;;;;5037954;28;20273;-67
2021/03/24 03:17:56;;;;;;;46.47;27.92;;;8.60;1.00;;;;;;5037555;28;20205;-66
2021/03/24 03:20:30;;;;;;;51.67;30.00;;;8.70;1.00;;;;;;5038511;28;20239;-65
2021/03/24 03:23:00;;;;;;;45.80;27.23;;;8.70;1.00;;;;;;5039299;28;20205;-63
2021/03/24 03:25:32;;;;;;;56.70;29.50;;;8.70;13.70;;;;;;5040839;28;20192;-65
2021/03/24 03:28:01;;;;;;;52.25;29.40;;;8.70;99.90;;;;;;5041909;28;20181;-64
2021/03/24 03:30:30;;;;;;;49.92;29.48;;;8.80;1.00;;;;;;5038835;28;20216;-66
2021/03/24 03:32:58;;;;;;;52.45;28.00;;;8.90;99.90;;;;;;5038632;28;20178;-65
2021/03/24 03:35:25;;;;;;;51.78;30.30;;;9.00;99.90;;;;;;5041263;28;20173;-65
2021/03/24 03:37:54;;;;;;;53.78;28.20;;;9.10;99.90;;;;;;5040568;28;20231;-62
2021/03/24 03:40:22;;;;;;;49.80;28.65;;;9.00;1.00;;;;;;5038909;28;20539;-65
2021/03/24 03:42:49;;;;;;;51.47;27.60;;;8.80;97.20;;;;;;5038714;28;20192;-64
2021/03/24 03:45:15;;;;;;;57.80;29.15;;;9.00;99.90;;;;;;5039104;28;20658;-65
2021/03/24 03:47:43;;;;;;;48.85;27.60;;;9.00;94.70;;;;;;5040355;28;20224;-67
2021/03/24 03:50:13;;;;;;;49.47;26.30;;;9.00;1.00;;;;;;5041580;28;20579;-66
2021/03/24 03:52:53;;;;;;;49.13;26.65;;;8.90;1.00;;;;;;5039276;28;20185;-65
2021/03/24 03:55:38;;;;;;;52.13;28.02;;;8.70;99.90;;;;;;5038161;28;20212;-64
2021/03/24 03:58:13;;;;;;;55.30;26.58;;;8.60;99.90;;;;;;5038018;28;20201;-64
2021/03/24 04:00:50;;;;;;;51.33;25.95;;;8.60;1.00;;;;;;5037058;28;20565;-64
2021/03/24 04:03:19;;;;;;;46.90;25.90;;;8.40;99.90;;;;;;5037202;28;20598;-66
2021/03/24 04:05:54;;;;;;;42.92;25.02;;;8.50;1.00;;;;;;5037313;28;20228;-66
2021/03/24 04:08:22;;;;;;;43.53;27.17;;;8.50;1.00;;;;;;5037105;28;20586;-64
2021/03/24 04:10:52;;;;;;;48.22;27.75;;;8.50;1.00;;;;;;5037041;28;20489;-65
2021/03/24 04:13:18;;;;;;;47.97;27.30;;;8.40;1.00;;;;;;5036758;28;20181;-64
2021/03/24 04:15:44;;;;;;;42.83;26.45;;;8.60;99.90;;;;;;5036544;28;20275;-64
2021/03/24 04:25:00;;;;;;;53.50;28.40;;;8.80;1.00;;;;;;5035680;28;20575;-64
2021/03/24 04:27:31;;;;;;;61.78;29.58;;;8.90;99.90;;;;;;5037748;28;20191;-64
2021/03/24 04:30:06;;;;;;;51.72;30.35;;;8.80;99.90;;;;;;5038831;28;20192;-67
2021/03/24 04:32:32;;;;;;;50.42;26.63;;;8.90;1.00;;;;;;5038554;28;20188;-64
2021/03/24 04:34:58;;;;;;;52.30;28.40;;;9.00;99.90;;;;;;5038079;28;20192;-64
2021/03/24 04:37:42;;;;;;;52.63;29.20;;;8.90;37.50;;;;;;5038624;28;20239;-65
2021/03/24 04:40:31;;;;;;;50.47;28.33;;;8.80;99.90;;;;;;5038245;28;20574;-63
2021/03/24 04:43:18;;;;;;;47.58;28.23;;;8.60;99.90;;;;;;5038354;28;20239;-66
2021/03/24 04:45:53;;;;;;;50.95;27.85;;;8.80;99.90;;;;;;5037492;28;20245;-67
2021/03/24 04:48:41;;;;;;;48.92;25.88;;;8.80;99.90;;;;;;5036735;28;20201;-67
2021/03/24 04:51:11;;;;;;;52.03;28.48;;;8.80;99.90;;;;;;5037144;28;20197;-67
2021/03/24 04:53:43;;;;;;;50.97;29.40;;;8.60;1.00;;;;;;5036853;28;20653;-67
2021/03/24 04:56:11;;;;;;;52.00;28.08;;;8.60;1.00;;;;;;5036462;28;20622;-67
2021/03/24 04:58:44;;;;;;;52.88;29.33;;;8.60;1.00;;;;;;5034893;28;20220;-65
2021/03/24 05:01:16;;;;;;;51.38;30.00;;;8.70;1.00;;;;;;5036052;28;20180;-66
2021/03/24 05:03:44;;;;;;;44.72;24.90;;;8.70;1.00;;;;;;5034441;28;20173;-65
2021/03/24 05:06:33;;;;;;;51.13;27.63;;;8.80;1.00;;;;;;5035185;28;20188;-65
2021/03/24 05:09:00;;;;;;;51.83;29.45;;;8.90;1.00;;;;;;5038254;28;20204;-65
2021/03/24 05:11:34;;;;;;;52.13;28.38;;;8.80;99.90;;;;;;5034730;28;20572;-65
2021/03/24 05:14:21;;;;;;;53.28;27.92;;;8.80;99.90;;;;;;5034274;28;20626;-65
2021/03/24 05:16:49;;;;;;;48.45;27.48;;;8.70;99.90;;;;;;5034871;28;20658;-65
2021/03/24 05:19:27;;;;;;;51.38;26.48;;;8.50;1.00;;;;;;5034849;28;20214;-65
2021/03/24 05:22:12;;;;;;;51.83;29.17;;;8.50;99.90;;;;;;5034840;28;20172;-65
2021/03/24 05:24:40;;;;;;;43.63;24.75;;;8.50;99.90;;;;;;5034327;28;20567;-66
2021/03/24 05:27:40;;;;;;;48.55;25.77;;;8.50;99.90;;;;;;5034877;28;20204;-66
2021/03/24 05:30:19;;;;;;;45.67;26.15;;;8.30;99.90;;;;;;5033667;28;20176;-66
2021/03/24 05:32:49;;;;;;;50.55;27.35;;;8.50;99.90;;;;;;5034516;28;20176;-67
2021/03/24 05:35:30;;;;;;;53.60;26.35;;;8.20;1.00;;;;;;5034569;28;20213;-66
2021/03/24 05:38:03;;;;;;;49.25;27.45;;;8.20;24.10;;;;;;5034233;28;20201;-66
2021/03/24 05:40:44;;;;;;;49.15;26.75;;;8.30;1.00;;;;;;5034153;28;20181;-66
2021/03/24 05:43:09;;;;;;;48.55;24.70;;;8.30;1.00;;;;;;5034063;28;20671;-66
2021/03/24 05:45:55;;;;;;;44.80;24.97;;;8.20;1.00;;;;;;5033938;28;20184;-65
2021/03/24 05:48:55;;;;;;;46.72;28.15;;;8.10;99.90;;;;;;5034105;28;20614;-64
2021/03/24 05:51:43;;;;;;;47.25;25.75;;;8.10;99.90;;;;;;5033757;28;20514;-65
2021/03/24 05:54:28;;;;;;;45.92;25.83;;;8.20;99.90;;;;;;5033615;28;20188;-62
2021/03/24 05:57:19;;;;;;;44.97;24.75;;;8.30;19.60;;;;;;5033848;28;20496;-64
2021/03/24 06:00:16;;;;;;;47.97;28.52;;;8.20;99.90;;;;;;5033635;28;20545;-63
2021/03/24 06:03:12;;;;;;;52.45;25.90;;;8.20;99.90;;;;;;5033732;28;20184;-62
2021/03/24 06:06:05;;;;;;;43.45;24.70;;;8.10;99.90;;;;;;5033947;28;20585;-67
2021/03/24 06:08:39;;;;;;;53.00;29.75;;;8.30;1.00;;;;;;5033491;28;20533;-65
2021/03/24 06:11:38;;;;;;;46.53;24.98;;;8.40;99.90;;;;;;5033579;28;20178;-65
2021/03/24 06:14:40;;;;;;;44.00;23.77;;;8.50;1.00;;;;;;5033339;28;20188;-63
2021/03/24 06:17:43;;;;;;;48.05;24.88;;;8.60;99.90;;;;;;5033432;28;20188;-65
2021/03/24 06:20:47;;;;;;;49.38;25.90;;;8.80;1.00;;;;;;5033379;28;20585;-65
2021/03/24 06:23:51;;;;;;;46.13;23.98;;;8.90;99.90;;;;;;5033023;28;20184;-66
2021/03/24 06:26:46;;;;;;;39.97;24.75;;;9.20;33.90;;;;;;5033267;28;20185;-66
2021/03/24 06:29:49;;;;;;;45.70;25.45;;;9.30;1.00;;;;;;5033460;28;20184;-68
2021/03/24 06:32:36;;;;;;;47.30;23.77;;;9.20;1.00;;;;;;5033412;28;20192;-66
2021/03/24 06:35:32;;;;;;;40.50;25.02;;;9.30;1.00;;;;;;5033465;28;20481;-63
2021/03/24 06:38:22;;;;;;;48.47;25.05;;;9.20;1.00;;;;;;5033190;28;20538;-64
2021/03/24 06:40:58;;;;;;;41.88;22.80;;;9.30;1.00;;;;;;5034865;28;20180;-63
2021/03/24 06:43:54;;;;;;;45.35;25.17;;;9.50;99.90;;;;;;5037069;28;20260;-63
2021/03/24 06:46:36;;;;;;;43.72;23.10;;;9.80;99.90;;;;;;5037097;28;20181;-63
2021/03/24 06:49:12;;;;;;;46.83;26.45;;;10.00;1.00;;;;;;5037093;28;20189;-63
2021/03/24 06:52:15;;;;;;;42.95;24.45;;;10.30;1.00;;;;;;5037250;28;20212;-63
2021/03/24 06:55:25;;;;;;;40.90;23.90;;;10.20;99.90;;;;;;5037378;28;20216;-63
2021/03/24 06:57:53;;;;;;;50.65;25.92;;;9.90;1.00;;;;;;5037126;28;20586;-64
2021/03/24 07:00:24;;;;;;;40.10;24.00;;;10.00;1.00;;;;;;5037115;28;20188;-64
2021/03/24 07:03:17;;;;;;;43.35;26.15;;;10.00;1.00;;;;;;5036978;28;20629;-65
2021/03/24 07:06:31;;;;;;;44.92;26.75;;;10.00;1.00;;;;;;5036847;28;20283;-64
2021/03/24 07:09:15;;;;;;;45.97;26.55;;;9.70;1.00;;;;;;5050109;28;20287;-64
2021/03/24 07:11:59;;;;;;;47.45;27.13;;;9.40;1.00;;;;;;5036733;28;20293;-63
2021/03/24 07:14:56;;;;;;;51.40;29.27;;;9.50;99.90;;;;;;5034070;28;20250;-63
2021/03/24 07:17:40;;;;;;;51.55;27.70;;;9.60;99.90;;;;;;5036639;28;20172;-66
2021/03/24 07:20:30;;;;;;;59.85;29.90;;;9.40;99.90;;;;;;5036415;28;20243;-66
2021/03/24 07:23:26;;;;;;;53.70;28.88;;;9.60;1.00;;;;;;5036537;28;20192;-65
2021/03/24 07:26:03;;;;;;;57.78;29.70;;;9.70;99.90;;;;;;5036472;28;20699;-67
2021/03/24 07:29:04;;;;;;;73.38;33.60;;;10.10;1.00;;;;;;5036757;28;20178;-65
2021/03/24 07:31:45;;;;;;;54.45;28.05;;;10.20;1.00;;;;;;5035358;28;20196;-65
2021/03/24 07:34:25;;;;;;;55.20;29.45;;;10.10;1.00;;;;;;5035318;28;20477;-65
2021/03/24 07:37:05;;;;;;;59.42;30.55;;;10.20;99.90;;;;;;5034543;28;20181;-69
2021/03/24 07:40:06;;;;;;;61.80;31.05;;;10.30;99.90;;;;;;5036505;28;20228;-69
2021/03/24 07:42:48;;;;;;;59.70;32.50;;;10.30;1.00;;;;;;5031208;28;20618;-68
2021/03/24 07:45:31;;;;;;;54.72;29.27;;;10.20;1.00;;;;;;5036511;28;20592;-64
2021/03/24 07:48:33;;;;;;;58.05;31.25;;;10.00;99.90;;;;;;5036737;28;20194;-64
2021/03/24 07:51:27;;;;;;;58.47;31.30;;;10.20;99.90;;;;;;5035385;28;20181;-66
2021/03/24 07:54:04;;;;;;;61.17;33.28;;;10.30;1.00;;;;;;5016211;28;20199;-64
2021/03/24 07:57:06;;;;;;;55.20;29.60;;;10.40;1.00;;;;;;5016911;28;20209;-64
2021/03/24 07:59:43;;;;;;;53.88;30.50;;;10.70;1.00;;;;;;5018456;28;20219;-65
2021/03/24 08:02:40;;;;;;;61.25;33.28;;;11.00;99.90;;;;;;5015728;28;20187;-67
2021/03/24 08:05:40;;;;;;;64.32;32.70;;;11.00;1.00;;;;;;5016473;28;20184;-63
2021/03/24 08:08:24;;;;;;;51.30;30.40;;;11.20;1.00;;;;;;5015764;28;20697;-63
2021/03/24 08:10:50;;;;;;;56.83;31.15;;;11.40;99.90;;;;;;5015991;28;20183;-62
2021/03/24 08:13:46;;;;;;;61.23;32.00;;;11.50;1.00;;;;;;5015789;28;20225;-62
2021/03/24 08:16:33;;;;;;;53.70;30.90;;;11.80;99.90;;;;;;5028155;28;20293;-63
2021/03/24 08:19:21;;;;;;;51.97;29.73;;;12.10;99.90;;;;;;5035450;28;20692;-64
2021/03/24 08:22:01;;;;;;;50.60;29.75;;;12.20;99.90;;;;;;5043424;28;20661;-65
2021/03/24 08:24:33;;;;;;;57.40;33.03;;;12.30;99.90;;;;;;5055373;28;20180;-64
2021/03/24 08:27:02;;;;;;;58.75;32.38;;;12.30;13.40;;;;;;5055545;28;20245;-68
2021/03/24 08:29:48;;;;;;;56.28;34.35;;;12.80;1.00;;;;;;5055512;28;20173;-66
2021/03/24 08:32:44;;;;;;;52.78;31.38;;;12.60;1.00;;;;;;5055131;28;20196;-63
2021/03/24 08:35:28;;;;;;;53.13;32.35;;;12.30;1.00;;;;;;5055158;28;20177;-64
2021/03/24 08:38:07;;;;;;;53.75;32.53;;;12.90;1.00;;;;;;5055197;28;20270;-64
2021/03/24 08:41:05;;;;;;;51.88;30.02;;;12.90;1.00;;;;;;5055392;28;20169;-67
2021/03/24 08:43:57;;;;;;;52.78;30.10;;;12.60;1.00;;;;;;5044998;28;20513;-65
2021/03/24 08:46:52;;;;;;;50.60;31.92;;;12.80;1.00;;;;;;5034881;28;20616;-69
2021/03/24 08:49:21;;;;;;;54.30;29.88;;;12.20;1.00;;;;;;5034889;28;20214;-68
2021/03/24 08:52:01;;;;;;;57.83;33.65;;;12.20;16.20;;;;;;5035284;28;20196;-69
2021/03/24 08:54:52;;;;;;;50.22;29.88;;;12.30;1.00;;;;;;5034533;28;20585;-65
2021/03/24 08:57:48;;;;;;;52.42;31.52;;;12.60;1.00;;;;;;5034668;28;20193;-67
2021/03/24 09:00:30;;;;;;;47.95;29.23;;;12.60;1.00;;;;;;5034765;28;20627;-65
2021/03/24 09:03:15;;;;;;;56.75;31.13;;;12.80;1.00;;;;;;5034666;28;20191;-67
2021/03/24 09:05:44;;;;;;;52.30;31.38;;;13.00;1.00;;;;;;5034265;28;20275;-67
2021/03/24 09:08:29;;;;;;;66.50;38.30;;;13.20;99.90;;;;;;5033406;28;20473;-66
2021/03/24 09:11:28;;;;;;;60.33;37.95;;;13.50;99.90;;;;;;5034525;28;20630;-65
2021/03/24 09:14:08;;;;;;;42.58;26.10;;;13.90;99.90;;;;;;5033949;28;20298;-69
2021/03/24 09:16:33;;;;;;;46.30;29.58;;;13.50;99.90;;;;;;5034556;28;20193;-68
2021/03/24 09:19:31;;;;;;;53.80;29.43;;;12.70;99.90;;;;;;5034742;28;20209;-66
2021/03/24 09:22:31;;;;;;;46.47;29.02;;;12.30;1.00;;;;;;5034634;28;20484;-65
2021/03/24 09:25:25;;;;;;;48.72;29.63;;;12.50;1.00;;;;;;5033896;28;20193;-72
2021/03/24 09:28:02;;;;;;;47.38;27.60;;;12.30;1.00;;;;;;5034149;28;20200;-71
2021/03/24 09:30:49;;;;;;;48.80;29.42;;;12.60;1.00;;;;;;5034520;28;20178;-66
2021/03/24 09:33:27;;;;;;;44.25;28.27;;;12.80;1.00;;;;;;5034277;28;20232;-66
2021/03/24 09:36:16;;;;;;;47.45;28.42;;;13.20;1.00;;;;;;5034173;28;20182;-65
2021/03/24 09:38:43;;;;;;;46.92;28.55;;;13.60;99.90;;;;;;5034085;28;20216;-66
2021/03/24 09:41:27;;;;;;;48.80;29.48;;;13.40;99.90;;;;;;5032888;28;20601;-65
2021/03/24 09:44:07;;;;;;;43.33;26.63;;;13.50;99.90;;;;;;5032827;28;20216;-66
2021/03/24 09:46:46;;;;;;;44.75;28.58;;;13.50;99.90;;;;;;5017186;28;20174;-66
2021/03/24 09:49:22;;;;;;;44.08;27.73;;;13.60;99.90;;;;;;5041822;28;20280;-65
2021/03/24 09:52:05;;;;;;;44.80;28.20;;;13.00;99.90;;;;;;5041999;28;20186;-66
2021/03/24 09:54:31;;;;;;;43.80;27.75;;;13.30;99.90;;;;;;5033440;28;20179;-65
2021/03/24 09:57:04;;;;;;;39.00;26.05;;;13.40;99.90;;;;;;5032541;28;20179;-66
2021/03/24 09:59:39;;;;;;;45.67;29.17;;;13.50;99.90;;;;;;5033662;28;20190;-65
2021/03/24 10:02:26;;;;;;;47.17;28.98;;;13.20;99.90;;;;;;5033291;28;20229;-66
2021/03/24 10:04:54;;;;;;;50.10;30.02;;;13.20;99.90;;;;;;5033614;28;20253;-65
2021/03/24 10:07:26;;;;;;;43.90;27.52;;;13.30;99.90;;;;;;5033848;28;20191;-68
2021/03/24 10:09:56;;;;;;;53.88;30.05;;;13.40;99.90;;;;;;5032931;28;20182;-65
2021/03/24 10:12:34;;;;;;;48.92;30.48;;;13.90;99.90;;;;;;5033632;28;20198;-67
2021/03/24 10:15:17;;;;;;;50.58;30.50;;;14.10;99.90;;;;;;5033970;28;20214;-70
2021/03/24 10:18:13;;;;;;;48.20;30.50;;;14.00;99.90;;;;;;5032449;28;20521;-70
2021/03/24 10:20:52;;;;;;;52.20;33.20;;;14.10;99.90;;;;;;5033467;28;20178;-69
2021/03/24 10:23:23;;;;;;;52.67;30.92;;;13.80;99.90;;;;;;5013677;28;20182;-69
2021/03/24 10:25:53;;;;;;;53.47;31.17;;;13.80;99.90;;;;;;5012945;28;20178;-68
2021/03/24 10:28:25;;;;;;;51.35;33.28;;;13.40;99.90;;;;;;5013762;28;20187;-69
2021/03/24 10:31:21;;;;;;;50.47;32.38;;;13.20;99.90;;;;;;5013582;28;20189;-68
2021/03/24 10:33:56;;;;;;;51.05;30.95;;;13.10;99.90;;;;;;5013336;28;20698;-70
2021/03/24 10:36:41;;;;;;;47.53;28.60;;;13.20;99.90;;;;;;5012639;28;20181;-70
2021/03/24 10:39:32;;;;;;;45.33;28.55;;;13.30;99.90;;;;;;5013986;28;20305;-68
2021/03/24 10:42:16;;;;;;;44.40;27.58;;;13.30;99.90;;;;;;5013737;28;20180;-67
2021/03/24 10:45:12;;;;;;;40.35;27.27;;;13.50;99.90;;;;;;5013981;28;20184;-69
2021/03/24 10:47:53;;;;;;;49.47;27.98;;;13.50;44.30;;;;;;5013944;28;20262;-69
2021/03/24 10:50:35;;;;;;;41.97;26.17;;;13.50;44.40;;;;;;5014682;28;20179;-70
2021/03/24 10:53:19;;;;;;;41.65;26.70;;;13.40;59.30;;;;;;5032129;28;20603;-69
2021/03/24 10:55:56;;;;;;;46.50;27.40;;;13.40;6.50;;;;;;5033023;28;20202;-68
2021/03/24 10:58:29;;;;;;;40.55;26.30;;;12.80;70.70;;;;;;5032830;28;20281;-68
2021/03/24 11:01:13;;;;;;;45.55;27.98;;;12.80;99.90;;;;;;5033099;28;20235;-68
2021/03/24 11:03:48;;;;;;;44.75;27.45;;;13.30;99.90;;;;;;5033079;28;20733;-69
2021/03/24 11:06:31;;;;;;;37.15;24.85;;;13.70;14.90;;;;;;5033150;28;20181;-66
2021/03/24 11:09:12;;;;;;;37.58;24.90;;;13.70;1.00;;;;;;5033282;28;20309;-68
2021/03/24 11:11:48;;;;;;;38.38;24.80;;;13.80;1.00;;;;;;5034135;28;20252;-69
2021/03/24 11:14:24;;;;;;;39.20;26.90;;;13.90;1.00;;;;;;5033305;28;20175;-68
2021/03/24 11:17:17;;;;;;;39.08;25.15;;;13.60;1.00;;;;;;5032937;28;20190;-65
2021/03/24 11:19:47;;;;;;;41.20;25.77;;;13.60;1.00;;;;;;5033135;28;20206;-68
2021/03/24 11:22:48;;;;;;;42.38;25.75;;;13.50;10.70;;;;;;5044186;28;20252;-68
2021/03/24 11:25:38;;;;;;;36.90;24.60;;;13.40;48.20;;;;;;5052108;28;20268;-69
2021/03/24 11:28:16;;;;;;;37.95;24.98;;;13.40;47.40;;;;;;5054913;28;20174;-68
2021/03/24 11:30:48;;;;;;;41.35;27.63;;;13.70;56.50;;;;;;5056131;28;20176;-68
2021/03/24 11:33:36;;;;;;;40.53;26.98;;;13.70;3.00;;;;;;5054883;28;20186;-67
2021/03/24 11:36:09;;;;;;;42.92;25.02;;;13.50;14.00;;;;;;5056197;28;20229;-67
2021/03/24 11:38:41;;;;;;;42.40;25.30;;;13.70;55.20;;;;;;5055333;28;20210;-66
2021/03/24 11:41:13;;;;;;;38.20;25.17;;;13.60;20.90;;;;;;5035789;28;20193;-67
2021/03/24 11:43:42;;;;;;;39.85;26.33;;;13.80;34.10;;;;;;5035552;28;20207;-67
2021/03/24 11:46:32;;;;;;;41.83;25.63;;;14.20;1.00;;;;;;5035788;28;20268;-67
2021/03/24 11:49:04;;;;;;;40.85;25.92;;;14.40;1.00;;;;;;5036120;28;20176;-69
2021/03/24 11:51:56;;;;;;;49.92;27.42;;;14.40;1.00;;;;;;5034961;28;20178;-65
2021/03/24 11:54:28;;;;;;;39.80;26.50;;;14.70;1.00;;;;;;5033671;28;20209;-65
2021/03/24 11:57:15;;;;;;;38.38;25.73;;;14.50;1.00;;;;;;5033704;28;20190;-67
2021/03/24 11:59:50;;;;;;;44.47;28.08;;;14.00;1.00;;;;;;5036286;28;20275;-66
2021/03/24 12:02:29;;;;;;;37.20;25.10;;;13.70;27.80;;;;;;5036316;28;20182;-68
2021/03/24 12:05:05;;;;;;;41.58;26.35;;;13.70;20.80;;;;;;5035856;28;20674;-64
2021/03/24 12:07:57;;;;;;;44.65;27.05;;;13.70;99.90;;;;;;5036082;28;20194;-64
2021/03/24 12:10:36;;;;;;;43.17;26.80;;;14.00;34.40;;;;;;5036376;28;20186;-64
2021/03/24 12:13:12;;;;;;;36.72;24.88;;;14.40;1.00;;;;;;5036092;28;20186;-63
2021/03/24 12:15:40;;;;;;;48.70;28.98;;;14.60;1.00;;;;;;5036198;28;20297;-68
2021/03/24 12:18:17;;;;;;;41.83;25.45;;;15.10;1.00;;;;;;5035956;28;20644;-66
2021/03/24 12:20:58;;;;;;;38.83;25.83;;;15.10;1.00;;;;;;5036364;28;20188;-67
2021/03/24 12:23:28;;;;;;;37.85;26.33;;;14.70;1.00;;;;;;5055996;28;20175;-66
2021/03/24 12:25:59;;;;;;;44.67;29.30;;;14.70;1.00;;;;;;5051811;28;20209;-68
2021/03/24 12:28:47;;;;;;;44.05;28.95;;;14.50;1.00;;;;;;5036039;28;20188;-65
2021/03/24 12:31:15;;;;;;;38.60;26.42;;;14.40;1.00;;;;;;5035676;28;20205;-67
2021/03/24 12:33:57;;;;;;;41.30;27.77;;;14.60;1.00;;;;;;5036022;28;20188;-68
2021/03/24 12:36:26;;;;;;;43.25;28.75;;;14.60;1.00;;;;;;5034714;28;20186;-67
2021/03/24 12:39:04;;;;;;;45.55;28.83;;;14.70;1.00;;;;;;5035703;28;20214;-65
2021/03/24 12:41:42;;;;;;;44.30;28.55;;;14.80;1.00;;;;;;5035358;28;20187;-66
2021/03/24 12:44:34;;;;;;;43.13;28.10;;;14.70;1.00;;;;;;5035021;28;20190;-66
2021/03/24 12:47:03;;;;;;;44.00;27.30;;;14.40;1.00;;;;;;5035579;28;20206;-67
2021/03/24 12:49:38;;;;;;;47.63;27.63;;;14.70;1.00;;;;;;5036565;28;20197;-69
2021/03/24 12:52:29;;;;;;;45.53;30.02;;;14.90;1.00;;;;;;5037482;28;20254;-68
2021/03/24 12:54:55;;;;;;;47.45;28.27;;;15.10;1.00;;;;;;5036128;28;20621;-68
2021/03/24 12:57:23;;;;;;;41.03;29.83;;;15.00;1.00;;;;;;5034417;28;20620;-69
2021/03/24 13:00:19;;;;;;;43.70;29.95;;;15.20;1.00;;;;;;5034220;28;20216;-68
2021/03/24 13:03:19;;;;;;;44.28;29.20;;;15.10;1.00;;;;;;5034313;28;20278;-71
2021/03/24 13:05:59;;;;;;;43.10;29.02;;;15.00;1.00;;;;;;5035368;28;20207;-71
2021/03/24 13:09:05;;;;;;;47.30;28.75;;;15.30;1.00;;;;;;5035138;28;20193;-67
2021/03/24 13:11:50;;;;;;;42.63;28.73;;;15.10;1.00;;;;;;5034467;28;20188;-71
2021/03/24 13:14:40;;;;;;;42.30;29.42;;;15.30;1.00;;;;;;5034975;28;20216;-68
2021/03/24 13:17:22;;;;;;;40.20;27.50;;;15.30;1.00;;;;;;5034023;28;20184;-69
2021/03/24 13:20:06;;;;;;;42.97;27.98;;;15.20;1.00;;;;;;5034648;28;20193;-66
2021/03/24 13:22:40;;;;;;;42.50;28.20;;;15.20;1.00;;;;;;5034905;28;20176;-68
2021/03/24 13:25:41;;;;;;;42.50;27.98;;;15.10;1.00;;;;;;5034665;28;20338;-69
2021/03/24 13:28:34;;;;;;;45.50;30.10;;;15.30;1.00;;;;;;5022386;28;20204;-69
2021/03/24 13:31:25;;;;;;;46.28;29.30;;;15.00;1.00;;;;;;5034654;28;20276;-69
2021/03/24 13:34:04;;;;;;;40.90;28.17;;;15.00;1.00;;;;;;5034413;28;20186;-69
2021/03/24 13:36:50;;;;;;;46.05;29.05;;;15.00;1.00;;;;;;5034444;28;20185;-70
2021/03/24 13:39:20;;;;;;;43.33;28.83;;;15.10;1.00;;;;;;5033339;28;20520;-68
2021/03/24 13:41:54;;;;;;;48.78;31.10;;;15.40;1.00;;;;;;5033061;28;20185;-68